sensor_id;sensor_type;location;lat;lon;timestamp;P1;durP1;ratioP1;P2;durP2;ratioP2
6027;SDS011;3042;43.194;27.646;2023-03-01T00:01:29;65.43;;;60.70;;
6027;SDS011;3042;43.194;27.646;2023-03-01T00:03:58;57.87;;;53.87;;
6027;SDS011;3042;43.194;27.646;2023-03-01T00:06:26;61.53;;;56.63;;
6027;SDS011;3042;43.194;27.646;2023-03-01T00:08:54;58.80;;;54.70;;
6027;SDS011;3042;43.194;27.646;2023-03-01T00:11:22;53.20;;;49.40;;
6027;SDS011;3042;43.194;27.646;2023-03-01T00:13:52;51.30;;;47.63;;
6027;SDS011;3042;43.194;27.646;2023-03-01T00:16:21;59.40;;;55.20;;
6027;SDS011;3042;43.194;27.646;2023-03-01T00:18:49;55.23;;;51.53;;
6027;SDS011;3042;43.194;27.646;2023-03-01T00:21:18;54.20;;;50.60;;
6027;SDS011;3042;43.194;27.646;2023-03-01T00:23:46;51.30;;;47.80;;
6027;SDS011;3042;43.194;27.646;2023-03-01T00:26:14;53.07;;;49.27;;
6027;SDS011;3042;43.194;27.646;2023-03-01T00:28:42;59.57;;;55.47;;
6027;SDS011;3042;43.194;27.646;2023-03-01T00:31:11;66.03;;;61.23;;
6027;SDS011;3042;43.194;27.646;2023-03-01T00:33:40;61.00;;;56.60;;
6027;SDS011;3042;43.194;27.646;2023-03-01T00:36:07;59.47;;;55.20;;
6027;SDS011;3042;43.194;27.646;2023-03-01T00:38:37;62.70;;;58.03;;
6027;SDS011;3042;43.194;27.646;2023-03-01T00:41:05;60.93;;;55.93;;
6027;SDS011;3042;43.194;27.646;2023-03-01T00:43:32;67.37;;;62.07;;
6027;SDS011;3042;43.194;27.646;2023-03-01T00:46:01;64.97;;;59.57;;
6027;SDS011;3042;43.194;27.646;2023-03-01T00:48:29;67.50;;;62.10;;
6027;SDS011;3042;43.194;27.646;2023-03-01T00:50:56;118.83;;;106.00;;
6027;SDS011;3042;43.194;27.646;2023-03-01T00:53:23;121.33;;;108.33;;
6027;SDS011;3042;43.194;27.646;2023-03-01T00:55:52;200.40;;;163.97;;
6027;SDS011;3042;43.194;27.646;2023-03-01T00:58:19;108.70;;;97.33;;
6027;SDS011;3042;43.194;27.646;2023-03-01T01:00:46;121.40;;;108.53;;
6027;SDS011;3042;43.194;27.646;2023-03-01T01:03:13;98.90;;;90.57;;
6027;SDS011;3042;43.194;27.646;2023-03-01T01:05:40;135.20;;;122.23;;
6027;SDS011;3042;43.194;27.646;2023-03-01T01:08:07;183.73;;;154.83;;
6027;SDS011;3042;43.194;27.646;2023-03-01T01:10:34;86.90;;;79.10;;
6027;SDS011;3042;43.194;27.646;2023-03-01T01:13:02;83.77;;;76.40;;
6027;SDS011;3042;43.194;27.646;2023-03-01T01:15:33;72.10;;;65.97;;
6027;SDS011;3042;43.194;27.646;2023-03-01T01:18:00;107.47;;;97.17;;
6027;SDS011;3042;43.194;27.646;2023-03-01T01:20:27;76.57;;;70.10;;
6027;SDS011;3042;43.194;27.646;2023-03-01T01:22:55;113.37;;;102.53;;
6027;SDS011;3042;43.194;27.646;2023-03-01T01:25:22;74.70;;;68.90;;
6027;SDS011;3042;43.194;27.646;2023-03-01T01:27:50;76.33;;;69.30;;
6027;SDS011;3042;43.194;27.646;2023-03-01T01:30:18;68.60;;;62.60;;
6027;SDS011;3042;43.194;27.646;2023-03-01T01:32:45;56.53;;;52.33;;
6027;SDS011;3042;43.194;27.646;2023-03-01T01:35:12;57.93;;;53.93;;
6027;SDS011;3042;43.194;27.646;2023-03-01T01:37:39;58.67;;;54.77;;
6027;SDS011;3042;43.194;27.646;2023-03-01T01:40:07;55.00;;;51.77;;
6027;SDS011;3042;43.194;27.646;2023-03-01T01:42:35;48.07;;;45.20;;
6027;SDS011;3042;43.194;27.646;2023-03-01T01:45:26;45.30;;;42.80;;
6027;SDS011;3042;43.194;27.646;2023-03-01T01:47:57;48.63;;;46.13;;
6027;SDS011;3042;43.194;27.646;2023-03-01T01:50:27;49.37;;;46.67;;
6027;SDS011;3042;43.194;27.646;2023-03-01T01:53:03;47.30;;;44.40;;
6027;SDS011;3042;43.194;27.646;2023-03-01T01:55:35;48.40;;;45.40;;
6027;SDS011;3042;43.194;27.646;2023-03-01T01:58:04;51.67;;;48.53;;
6027;SDS011;3042;43.194;27.646;2023-03-01T02:00:36;48.20;;;45.20;;
6027;SDS011;3042;43.194;27.646;2023-03-01T02:03:04;51.87;;;48.57;;
6027;SDS011;3042;43.194;27.646;2023-03-01T02:05:36;43.93;;;41.10;;
6027;SDS011;3042;43.194;27.646;2023-03-01T02:08:08;50.70;;;47.30;;
6027;SDS011;3042;43.194;27.646;2023-03-01T02:10:37;58.07;;;53.97;;
6027;SDS011;3042;43.194;27.646;2023-03-01T02:13:05;56.93;;;53.37;;
6027;SDS011;3042;43.194;27.646;2023-03-01T02:15:33;49.77;;;46.57;;
6027;SDS011;3042;43.194;27.646;2023-03-01T02:18:03;49.90;;;46.80;;
6027;SDS011;3042;43.194;27.646;2023-03-01T02:20:33;48.40;;;45.30;;
6027;SDS011;3042;43.194;27.646;2023-03-01T02:23:06;52.13;;;48.77;;
6027;SDS011;3042;43.194;27.646;2023-03-01T02:25:37;55.13;;;51.13;;
6027;SDS011;3042;43.194;27.646;2023-03-01T02:28:21;54.73;;;50.50;;
6027;SDS011;3042;43.194;27.646;2023-03-01T02:30:52;56.17;;;52.20;;
6027;SDS011;3042;43.194;27.646;2023-03-01T02:33:38;60.17;;;56.17;;
6027;SDS011;3042;43.194;27.646;2023-03-01T02:36:06;55.93;;;51.83;;
6027;SDS011;3042;43.194;27.646;2023-03-01T02:38:38;60.80;;;56.30;;
6027;SDS011;3042;43.194;27.646;2023-03-01T02:41:06;64.30;;;59.77;;
6027;SDS011;3042;43.194;27.646;2023-03-01T02:43:36;70.30;;;65.30;;
6027;SDS011;3042;43.194;27.646;2023-03-01T02:46:05;64.33;;;59.90;;
6027;SDS011;3042;43.194;27.646;2023-03-01T02:48:40;53.90;;;50.33;;
6027;SDS011;3042;43.194;27.646;2023-03-01T02:51:10;50.50;;;47.20;;
6027;SDS011;3042;43.194;27.646;2023-03-01T02:53:48;48.30;;;44.93;;
6027;SDS011;3042;43.194;27.646;2023-03-01T02:56:24;46.73;;;43.83;;
6027;SDS011;3042;43.194;27.646;2023-03-01T02:58:53;49.90;;;46.80;;
6027;SDS011;3042;43.194;27.646;2023-03-01T03:01:26;44.80;;;42.10;;
6027;SDS011;3042;43.194;27.646;2023-03-01T03:04:01;49.70;;;46.60;;
6027;SDS011;3042;43.194;27.646;2023-03-01T03:06:29;44.17;;;41.43;;
6027;SDS011;3042;43.194;27.646;2023-03-01T03:08:56;45.40;;;42.40;;
6027;SDS011;3042;43.194;27.646;2023-03-01T03:11:23;45.80;;;42.60;;
6027;SDS011;3042;43.194;27.646;2023-03-01T03:13:50;44.97;;;42.27;;
6027;SDS011;3042;43.194;27.646;2023-03-01T03:16:19;49.23;;;46.23;;
6027;SDS011;3042;43.194;27.646;2023-03-01T03:18:46;53.60;;;50.10;;
6027;SDS011;3042;43.194;27.646;2023-03-01T03:21:13;48.63;;;45.38;;
6027;SDS011;3042;43.194;27.646;2023-03-01T03:23:41;44.23;;;41.63;;
6027;SDS011;3042;43.194;27.646;2023-03-01T03:26:08;44.53;;;41.83;;
6027;SDS011;3042;43.194;27.646;2023-03-01T03:28:40;44.13;;;41.33;;
6027;SDS011;3042;43.194;27.646;2023-03-01T03:31:07;43.77;;;41.17;;
6027;SDS011;3042;43.194;27.646;2023-03-01T03:33:36;44.30;;;41.50;;
6027;SDS011;3042;43.194;27.646;2023-03-01T03:36:03;43.63;;;41.03;;
6027;SDS011;3042;43.194;27.646;2023-03-01T03:38:31;44.23;;;41.43;;
6027;SDS011;3042;43.194;27.646;2023-03-01T03:41:00;46.97;;;44.20;;
6027;SDS011;3042;43.194;27.646;2023-03-01T03:43:29;45.53;;;42.67;;
6027;SDS011;3042;43.194;27.646;2023-03-01T03:46:14;44.67;;;41.87;;
6027;SDS011;3042;43.194;27.646;2023-03-01T03:48:44;47.37;;;44.30;;
6027;SDS011;3042;43.194;27.646;2023-03-01T03:51:12;51.03;;;48.13;;
6027;SDS011;3042;43.194;27.646;2023-03-01T03:53:40;42.90;;;40.30;;
6027;SDS011;3042;43.194;27.646;2023-03-01T03:56:07;40.07;;;37.80;;
6027;SDS011;3042;43.194;27.646;2023-03-01T04:01:20;44.50;;;41.63;;
6027;SDS011;3042;43.194;27.646;2023-03-01T04:03:48;42.10;;;39.40;;
6027;SDS011;3042;43.194;27.646;2023-03-01T04:06:19;44.73;;;41.70;;
6027;SDS011;3042;43.194;27.646;2023-03-01T04:08:46;46.83;;;43.37;;
6027;SDS011;3042;43.194;27.646;2023-03-01T04:11:16;44.77;;;41.87;;
6027;SDS011;3042;43.194;27.646;2023-03-01T04:13:53;37.87;;;35.37;;
6027;SDS011;3042;43.194;27.646;2023-03-01T04:16:21;42.10;;;39.40;;
6027;SDS011;3042;43.194;27.646;2023-03-01T04:18:50;44.30;;;41.30;;
6027;SDS011;3042;43.194;27.646;2023-03-01T04:21:18;48.53;;;45.43;;
6027;SDS011;3042;43.194;27.646;2023-03-01T04:23:46;47.10;;;43.92;;
6027;SDS011;3042;43.194;27.646;2023-03-01T04:26:13;42.90;;;39.83;;
6027;SDS011;3042;43.194;27.646;2023-03-01T04:28:40;41.73;;;39.13;;
6027;SDS011;3042;43.194;27.646;2023-03-01T04:31:11;43.93;;;41.13;;
6027;SDS011;3042;43.194;27.646;2023-03-01T04:33:39;48.43;;;45.37;;
6027;SDS011;3042;43.194;27.646;2023-03-01T04:36:09;45.43;;;42.23;;
6027;SDS011;3042;43.194;27.646;2023-03-01T04:38:37;43.10;;;40.27;;
6027;SDS011;3042;43.194;27.646;2023-03-01T04:41:06;41.10;;;38.10;;
6027;SDS011;3042;43.194;27.646;2023-03-01T04:43:34;44.93;;;41.93;;
6027;SDS011;3042;43.194;27.646;2023-03-01T04:46:02;47.97;;;44.77;;
6027;SDS011;3042;43.194;27.646;2023-03-01T04:48:31;45.73;;;42.63;;
6027;SDS011;3042;43.194;27.646;2023-03-01T04:50:59;49.70;;;46.30;;
6027;SDS011;3042;43.194;27.646;2023-03-01T04:53:27;51.00;;;47.10;;
6027;SDS011;3042;43.194;27.646;2023-03-01T04:55:55;50.90;;;47.60;;
6027;SDS011;3042;43.194;27.646;2023-03-01T04:58:22;42.33;;;39.43;;
6027;SDS011;3042;43.194;27.646;2023-03-01T05:00:49;44.20;;;41.10;;
6027;SDS011;3042;43.194;27.646;2023-03-01T05:03:17;43.00;;;40.10;;
6027;SDS011;3042;43.194;27.646;2023-03-01T05:05:44;44.60;;;41.73;;
6027;SDS011;3042;43.194;27.646;2023-03-01T05:08:13;46.63;;;43.03;;
6027;SDS011;3042;43.194;27.646;2023-03-01T05:10:45;45.03;;;42.17;;
6027;SDS011;3042;43.194;27.646;2023-03-01T05:13:14;44.23;;;40.83;;
6027;SDS011;3042;43.194;27.646;2023-03-01T05:15:46;45.93;;;42.80;;
6027;SDS011;3042;43.194;27.646;2023-03-01T05:18:13;46.30;;;42.80;;
6027;SDS011;3042;43.194;27.646;2023-03-01T05:20:40;48.10;;;44.70;;
6027;SDS011;3042;43.194;27.646;2023-03-01T05:23:08;51.00;;;47.50;;
6027;SDS011;3042;43.194;27.646;2023-03-01T05:25:35;48.60;;;45.50;;
6027;SDS011;3042;43.194;27.646;2023-03-01T05:28:06;46.30;;;43.10;;
6027;SDS011;3042;43.194;27.646;2023-03-01T05:30:36;43.50;;;40.37;;
6027;SDS011;3042;43.194;27.646;2023-03-01T05:33:05;41.30;;;38.57;;
6027;SDS011;3042;43.194;27.646;2023-03-01T05:35:38;65.80;;;60.07;;
6027;SDS011;3042;43.194;27.646;2023-03-01T05:38:05;74.53;;;67.43;;
6027;SDS011;3042;43.194;27.646;2023-03-01T05:40:33;50.70;;;46.47;;
6027;SDS011;3042;43.194;27.646;2023-03-01T05:43:00;43.63;;;40.50;;
6027;SDS011;3042;43.194;27.646;2023-03-01T05:45:31;46.63;;;43.50;;
6027;SDS011;3042;43.194;27.646;2023-03-01T05:47:58;43.77;;;40.80;;
6027;SDS011;3042;43.194;27.646;2023-03-01T05:50:27;41.87;;;39.33;;
6027;SDS011;3042;43.194;27.646;2023-03-01T05:52:57;48.67;;;45.47;;
6027;SDS011;3042;43.194;27.646;2023-03-01T05:55:25;45.20;;;42.30;;
6027;SDS011;3042;43.194;27.646;2023-03-01T05:57:53;44.87;;;41.93;;
6027;SDS011;3042;43.194;27.646;2023-03-01T06:00:20;41.10;;;38.47;;
6027;SDS011;3042;43.194;27.646;2023-03-01T06:02:49;41.80;;;39.10;;
6027;SDS011;3042;43.194;27.646;2023-03-01T06:05:17;49.03;;;45.93;;
6027;SDS011;3042;43.194;27.646;2023-03-01T06:07:47;40.67;;;38.07;;
6027;SDS011;3042;43.194;27.646;2023-03-01T06:10:15;39.63;;;36.13;;
6027;SDS011;3042;43.194;27.646;2023-03-01T06:12:42;39.60;;;36.90;;
6027;SDS011;3042;43.194;27.646;2023-03-01T06:15:12;41.47;;;38.37;;
6027;SDS011;3042;43.194;27.646;2023-03-01T06:17:41;42.60;;;39.30;;
6027;SDS011;3042;43.194;27.646;2023-03-01T06:20:14;43.27;;;40.47;;
6027;SDS011;3042;43.194;27.646;2023-03-01T06:22:43;39.67;;;37.17;;
6027;SDS011;3042;43.194;27.646;2023-03-01T06:25:11;40.50;;;37.70;;
6027;SDS011;3042;43.194;27.646;2023-03-01T06:27:39;38.10;;;35.57;;
6027;SDS011;3042;43.194;27.646;2023-03-01T06:30:09;40.27;;;37.57;;
6027;SDS011;3042;43.194;27.646;2023-03-01T06:32:39;37.67;;;34.90;;
6027;SDS011;3042;43.194;27.646;2023-03-01T06:35:07;43.03;;;40.17;;
6027;SDS011;3042;43.194;27.646;2023-03-01T06:37:38;43.27;;;40.20;;
6027;SDS011;3042;43.194;27.646;2023-03-01T06:40:06;47.97;;;44.40;;
6027;SDS011;3042;43.194;27.646;2023-03-01T06:42:36;42.57;;;39.47;;
6027;SDS011;3042;43.194;27.646;2023-03-01T06:45:05;40.43;;;37.43;;
6027;SDS011;3042;43.194;27.646;2023-03-01T06:47:33;42.10;;;39.13;;
6027;SDS011;3042;43.194;27.646;2023-03-01T06:50:00;52.70;;;48.10;;
6027;SDS011;3042;43.194;27.646;2023-03-01T06:52:36;37.73;;;34.20;;
6027;SDS011;3042;43.194;27.646;2023-03-01T06:55:04;36.77;;;34.37;;
6027;SDS011;3042;43.194;27.646;2023-03-01T06:57:32;37.67;;;34.90;;
6027;SDS011;3042;43.194;27.646;2023-03-01T06:59:59;36.80;;;34.40;;
6027;SDS011;3042;43.194;27.646;2023-03-01T07:02:26;39.00;;;36.60;;
6027;SDS011;3042;43.194;27.646;2023-03-01T07:04:53;40.80;;;37.87;;
6027;SDS011;3042;43.194;27.646;2023-03-01T07:07:20;39.83;;;36.90;;
6027;SDS011;3042;43.194;27.646;2023-03-01T07:09:49;42.67;;;39.60;;
6027;SDS011;3042;43.194;27.646;2023-03-01T07:12:16;52.50;;;49.20;;
6027;SDS011;3042;43.194;27.646;2023-03-01T07:14:43;46.97;;;43.67;;
6027;SDS011;3042;43.194;27.646;2023-03-01T07:17:10;44.27;;;41.23;;
6027;SDS011;3042;43.194;27.646;2023-03-01T07:19:37;40.47;;;37.13;;
6027;SDS011;3042;43.194;27.646;2023-03-01T07:22:06;39.70;;;37.00;;
6027;SDS011;3042;43.194;27.646;2023-03-01T07:24:34;38.43;;;35.93;;
6027;SDS011;3042;43.194;27.646;2023-03-01T07:27:02;50.97;;;47.47;;
6027;SDS011;3042;43.194;27.646;2023-03-01T07:29:30;42.80;;;40.10;;
6027;SDS011;3042;43.194;27.646;2023-03-01T07:31:57;36.17;;;33.47;;
6027;SDS011;3042;43.194;27.646;2023-03-01T07:34:26;38.97;;;36.47;;
6027;SDS011;3042;43.194;27.646;2023-03-01T07:36:55;42.90;;;39.90;;
6027;SDS011;3042;43.194;27.646;2023-03-01T07:39:22;35.80;;;33.37;;
6027;SDS011;3042;43.194;27.646;2023-03-01T07:41:59;41.37;;;38.10;;
6027;SDS011;3042;43.194;27.646;2023-03-01T07:44:27;36.13;;;33.53;;
6027;SDS011;3042;43.194;27.646;2023-03-01T07:47:03;43.53;;;40.23;;
6027;SDS011;3042;43.194;27.646;2023-03-01T07:49:50;44.70;;;41.40;;
6027;SDS011;3042;43.194;27.646;2023-03-01T07:52:58;41.50;;;38.90;;
6027;SDS011;3042;43.194;27.646;2023-03-01T07:55:29;43.70;;;40.80;;
6027;SDS011;3042;43.194;27.646;2023-03-01T07:57:56;37.93;;;35.43;;
6027;SDS011;3042;43.194;27.646;2023-03-01T08:00:25;35.97;;;33.53;;
6027;SDS011;3042;43.194;27.646;2023-03-01T08:02:52;43.10;;;39.60;;
6027;SDS011;3042;43.194;27.646;2023-03-01T08:05:25;36.77;;;34.37;;
6027;SDS011;3042;43.194;27.646;2023-03-01T08:07:52;60.00;;;54.60;;
6027;SDS011;3042;43.194;27.646;2023-03-01T08:10:19;36.80;;;33.47;;
6027;SDS011;3042;43.194;27.646;2023-03-01T08:12:48;39.40;;;36.73;;
6027;SDS011;3042;43.194;27.646;2023-03-01T08:15:23;52.50;;;47.20;;
6027;SDS011;3042;43.194;27.646;2023-03-01T08:17:52;38.37;;;35.57;;
6027;SDS011;3042;43.194;27.646;2023-03-01T08:20:21;40.37;;;37.57;;
6027;SDS011;3042;43.194;27.646;2023-03-01T08:22:48;37.30;;;34.90;;
6027;SDS011;3042;43.194;27.646;2023-03-01T08:25:15;98.83;;;88.00;;
6027;SDS011;3042;43.194;27.646;2023-03-01T08:27:43;44.85;;;41.55;;
6027;SDS011;3042;43.194;27.646;2023-03-01T08:30:29;53.27;;;48.47;;
6027;SDS011;3042;43.194;27.646;2023-03-01T08:32:56;42.70;;;39.40;;
6027;SDS011;3042;43.194;27.646;2023-03-01T08:35:25;35.33;;;32.20;;
6027;SDS011;3042;43.194;27.646;2023-03-01T08:37:52;39.40;;;36.10;;
6027;SDS011;3042;43.194;27.646;2023-03-01T08:40:19;39.57;;;36.53;;
6027;SDS011;3042;43.194;27.646;2023-03-01T08:42:46;37.03;;;34.63;;
6027;SDS011;3042;43.194;27.646;2023-03-01T08:45:15;38.70;;;35.80;;
6027;SDS011;3042;43.194;27.646;2023-03-01T08:47:45;43.07;;;39.37;;
6027;SDS011;3042;43.194;27.646;2023-03-01T08:50:13;43.57;;;40.20;;
6027;SDS011;3042;43.194;27.646;2023-03-01T08:52:47;36.87;;;34.37;;
6027;SDS011;3042;43.194;27.646;2023-03-01T08:55:15;40.67;;;37.47;;
6027;SDS011;3042;43.194;27.646;2023-03-01T08:57:43;37.67;;;34.95;;
6027;SDS011;3042;43.194;27.646;2023-03-01T09:00:13;34.53;;;32.07;;
6027;SDS011;3042;43.194;27.646;2023-03-01T09:02:44;35.13;;;32.50;;
6027;SDS011;3042;43.194;27.646;2023-03-01T09:05:11;37.90;;;35.20;;
6027;SDS011;3042;43.194;27.646;2023-03-01T09:07:41;32.57;;;30.27;;
6027;SDS011;3042;43.194;27.646;2023-03-01T09:10:09;33.60;;;31.40;;
6027;SDS011;3042;43.194;27.646;2023-03-01T09:12:40;34.20;;;30.23;;
6027;SDS011;3042;43.194;27.646;2023-03-01T09:15:07;39.90;;;36.37;;
6027;SDS011;3042;43.194;27.646;2023-03-01T09:17:38;34.33;;;31.97;;
6027;SDS011;3042;43.194;27.646;2023-03-01T09:20:07;34.43;;;31.57;;
6027;SDS011;3042;43.194;27.646;2023-03-01T09:22:40;30.80;;;28.60;;
6027;SDS011;3042;43.194;27.646;2023-03-01T09:25:09;31.87;;;29.87;;
6027;SDS011;3042;43.194;27.646;2023-03-01T09:27:36;33.97;;;31.40;;
6027;SDS011;3042;43.194;27.646;2023-03-01T09:30:13;32.53;;;29.63;;
6027;SDS011;3042;43.194;27.646;2023-03-01T09:32:47;37.43;;;34.53;;
6027;SDS011;3042;43.194;27.646;2023-03-01T09:35:16;37.83;;;34.93;;
6027;SDS011;3042;43.194;27.646;2023-03-01T09:37:56;40.87;;;37.27;;
6027;SDS011;3042;43.194;27.646;2023-03-01T09:40:26;32.10;;;30.03;;
6027;SDS011;3042;43.194;27.646;2023-03-01T09:43:12;34.43;;;32.00;;
6027;SDS011;3042;43.194;27.646;2023-03-01T09:49:25;126.17;;;94.80;;
6027;SDS011;3042;43.194;27.646;2023-03-01T09:52:21;41.50;;;37.60;;
6027;SDS011;3042;43.194;27.646;2023-03-01T09:54:55;65.90;;;57.73;;
6027;SDS011;3042;43.194;27.646;2023-03-01T09:57:26;55.67;;;50.17;;
6027;SDS011;3042;43.194;27.646;2023-03-01T10:00:00;44.53;;;40.03;;
6027;SDS011;3042;43.194;27.646;2023-03-01T10:02:39;40.97;;;37.33;;
6027;SDS011;3042;43.194;27.646;2023-03-01T10:05:14;46.83;;;42.43;;
6027;SDS011;3042;43.194;27.646;2023-03-01T10:07:54;71.03;;;63.57;;
6027;SDS011;3042;43.194;27.646;2023-03-01T10:10:32;38.20;;;35.10;;
6027;SDS011;3042;43.194;27.646;2023-03-01T10:13:01;48.93;;;44.03;;
6027;SDS011;3042;43.194;27.646;2023-03-01T10:15:39;38.13;;;35.20;;
6027;SDS011;3042;43.194;27.646;2023-03-01T10:18:12;38.63;;;35.53;;
6027;SDS011;3042;43.194;27.646;2023-03-01T10:20:58;44.57;;;40.93;;
6027;SDS011;3042;43.194;27.646;2023-03-01T10:23:30;42.43;;;38.53;;
6027;SDS011;3042;43.194;27.646;2023-03-01T10:26:08;35.67;;;32.43;;
6027;SDS011;3042;43.194;27.646;2023-03-01T10:29:11;36.07;;;33.17;;
6027;SDS011;3042;43.194;27.646;2023-03-01T10:32:14;47.57;;;42.83;;
6027;SDS011;3042;43.194;27.646;2023-03-01T10:34:47;46.70;;;42.57;;
6027;SDS011;3042;43.194;27.646;2023-03-01T10:37:14;44.40;;;39.73;;
6027;SDS011;3042;43.194;27.646;2023-03-01T10:39:54;57.33;;;46.10;;
6027;SDS011;3042;43.194;27.646;2023-03-01T10:42:25;36.03;;;33.07;;
6027;SDS011;3042;43.194;27.646;2023-03-01T10:44:55;35.80;;;33.40;;
6027;SDS011;3042;43.194;27.646;2023-03-01T10:47:24;35.27;;;32.33;;
6027;SDS011;3042;43.194;27.646;2023-03-01T10:49:55;42.47;;;38.17;;
6027;SDS011;3042;43.194;27.646;2023-03-01T10:52:26;42.00;;;38.60;;
6027;SDS011;3042;43.194;27.646;2023-03-01T10:54:55;35.00;;;32.43;;
6027;SDS011;3042;43.194;27.646;2023-03-01T10:57:28;42.63;;;38.57;;
6027;SDS011;3042;43.194;27.646;2023-03-01T11:03:02;61.00;;;39.17;;
6027;SDS011;3042;43.194;27.646;2023-03-01T11:05:36;47.83;;;42.63;;
6027;SDS011;3042;43.194;27.646;2023-03-01T11:08:03;46.67;;;41.77;;
6027;SDS011;3042;43.194;27.646;2023-03-01T11:10:31;33.57;;;30.47;;
6027;SDS011;3042;43.194;27.646;2023-03-01T11:13:06;37.07;;;33.97;;
6027;SDS011;3042;43.194;27.646;2023-03-01T11:15:35;49.83;;;35.40;;
6027;SDS011;3042;43.194;27.646;2023-03-01T11:18:15;91.63;;;60.07;;
6027;SDS011;3042;43.194;27.646;2023-03-01T11:20:45;40.33;;;36.97;;
6027;SDS011;3042;43.194;27.646;2023-03-01T11:23:13;34.87;;;31.73;;
6027;SDS011;3042;43.194;27.646;2023-03-01T11:25:43;44.73;;;40.93;;
6027;SDS011;3042;43.194;27.646;2023-03-01T11:28:14;91.43;;;51.67;;
6027;SDS011;3042;43.194;27.646;2023-03-01T11:30:55;53.10;;;45.50;;
6027;SDS011;3042;43.194;27.646;2023-03-01T11:33:33;43.10;;;39.50;;
6027;SDS011;3042;43.194;27.646;2023-03-01T11:36:07;63.83;;;56.93;;
6027;SDS011;3042;43.194;27.646;2023-03-01T11:38:40;49.43;;;44.13;;
6027;SDS011;3042;43.194;27.646;2023-03-01T11:41:08;61.00;;;49.07;;
6027;SDS011;3042;43.194;27.646;2023-03-01T11:43:44;102.20;;;79.83;;
6027;SDS011;3042;43.194;27.646;2023-03-01T11:46:39;52.83;;;47.43;;
6027;SDS011;3042;43.194;27.646;2023-03-01T11:49:24;34.30;;;31.40;;
6027;SDS011;3042;43.194;27.646;2023-03-01T11:52:16;36.40;;;33.40;;
6027;SDS011;3042;43.194;27.646;2023-03-01T11:54:55;30.60;;;27.40;;
6027;SDS011;3042;43.194;27.646;2023-03-01T11:57:39;44.40;;;40.20;;
6027;SDS011;3042;43.194;27.646;2023-03-01T12:00:23;47.23;;;42.63;;
6027;SDS011;3042;43.194;27.646;2023-03-01T12:06:21;34.70;;;32.23;;
6027;SDS011;3042;43.194;27.646;2023-03-01T12:08:59;43.03;;;30.83;;
6027;SDS011;3042;43.194;27.646;2023-03-01T12:11:46;31.00;;;28.80;;
6027;SDS011;3042;43.194;27.646;2023-03-01T12:14:35;28.17;;;26.27;;
6027;SDS011;3042;43.194;27.646;2023-03-01T12:17:21;35.90;;;30.63;;
6027;SDS011;3042;43.194;27.646;2023-03-01T12:20:11;56.97;;;46.43;;
6027;SDS011;3042;43.194;27.646;2023-03-01T12:22:54;57.90;;;44.30;;
6027;SDS011;3042;43.194;27.646;2023-03-01T12:25:31;62.37;;;55.60;;
6027;SDS011;3042;43.194;27.646;2023-03-01T12:28:08;65.87;;;53.47;;
6027;SDS011;3042;43.194;27.646;2023-03-01T12:30:55;74.35;;;47.25;;
6027;SDS011;3042;43.194;27.646;2023-03-01T12:33:38;33.33;;;29.93;;
6027;SDS011;3042;43.194;27.646;2023-03-01T12:39:09;52.43;;;39.47;;
6027;SDS011;3042;43.194;27.646;2023-03-01T12:41:51;46.93;;;37.20;;
6027;SDS011;3042;43.194;27.646;2023-03-01T12:44:36;39.37;;;33.87;;
6027;SDS011;3042;43.194;27.646;2023-03-01T12:47:36;46.77;;;42.27;;
6027;SDS011;3042;43.194;27.646;2023-03-01T12:50:18;42.63;;;38.70;;
6027;SDS011;3042;43.194;27.646;2023-03-01T12:52:49;114.63;;;87.90;;
6027;SDS011;3042;43.194;27.646;2023-03-01T12:55:24;61.63;;;49.67;;
6027;SDS011;3042;43.194;27.646;2023-03-01T12:57:59;44.13;;;39.40;;
6027;SDS011;3042;43.194;27.646;2023-03-01T13:00:35;134.57;;;67.47;;
6027;SDS011;3042;43.194;27.646;2023-03-01T13:03:09;66.63;;;54.23;;
6027;SDS011;3042;43.194;27.646;2023-03-01T13:05:50;69.10;;;46.63;;
6027;SDS011;3042;43.194;27.646;2023-03-01T13:08:29;32.90;;;30.50;;
6027;SDS011;3042;43.194;27.646;2023-03-01T13:11:05;33.10;;;30.20;;
6027;SDS011;3042;43.194;27.646;2023-03-01T13:13:38;35.50;;;29.10;;
6027;SDS011;3042;43.194;27.646;2023-03-01T13:19:08;27.43;;;25.03;;
6027;SDS011;3042;43.194;27.646;2023-03-01T13:21:39;33.77;;;30.30;;
6027;SDS011;3042;43.194;27.646;2023-03-01T13:29:51;31.63;;;28.93;;
6027;SDS011;3042;43.194;27.646;2023-03-01T13:32:20;29.33;;;26.70;;
6027;SDS011;3042;43.194;27.646;2023-03-01T13:34:50;31.27;;;28.77;;
6027;SDS011;3042;43.194;27.646;2023-03-01T13:37:47;28.27;;;25.20;;
6027;SDS011;3042;43.194;27.646;2023-03-01T13:43:38;68.00;;;27.70;;
6027;SDS011;3042;43.194;27.646;2023-03-01T13:50:06;46.90;;;27.17;;
6027;SDS011;3042;43.194;27.646;2023-03-01T13:56:19;59.50;;;26.10;;
6027;SDS011;3042;43.194;27.646;2023-03-01T13:59:06;27.87;;;25.23;;
6027;SDS011;3042;43.194;27.646;2023-03-01T14:02:10;31.03;;;27.03;;
6027;SDS011;3042;43.194;27.646;2023-03-01T14:05:00;36.83;;;25.47;;
6027;SDS011;3042;43.194;27.646;2023-03-01T14:08:17;27.60;;;25.30;;
6027;SDS011;3042;43.194;27.646;2023-03-01T14:10:57;46.13;;;25.60;;
6027;SDS011;3042;43.194;27.646;2023-03-01T14:13:38;40.93;;;29.60;;
6027;SDS011;3042;43.194;27.646;2023-03-01T14:16:22;40.13;;;24.60;;
6027;SDS011;3042;43.194;27.646;2023-03-01T14:19:00;95.83;;;28.80;;
6027;SDS011;3042;43.194;27.646;2023-03-01T14:21:43;35.87;;;31.60;;
6027;SDS011;3042;43.194;27.646;2023-03-01T14:24:15;42.70;;;27.93;;
6027;SDS011;3042;43.194;27.646;2023-03-01T14:26:45;41.10;;;29.23;;
6027;SDS011;3042;43.194;27.646;2023-03-01T14:29:25;26.27;;;24.27;;
6027;SDS011;3042;43.194;27.646;2023-03-01T14:31:55;27.53;;;24.83;;
6027;SDS011;3042;43.194;27.646;2023-03-01T14:34:22;27.47;;;25.13;;
6027;SDS011;3042;43.194;27.646;2023-03-01T14:36:50;24.43;;;22.90;;
6027;SDS011;3042;43.194;27.646;2023-03-01T14:39:24;27.13;;;25.43;;
6027;SDS011;3042;43.194;27.646;2023-03-01T14:41:51;29.13;;;26.80;;
6027;SDS011;3042;43.194;27.646;2023-03-01T14:44:19;27.50;;;25.20;;
6027;SDS011;3042;43.194;27.646;2023-03-01T14:46:55;27.63;;;25.87;;
6027;SDS011;3042;43.194;27.646;2023-03-01T14:49:28;26.87;;;25.07;;
6027;SDS011;3042;43.194;27.646;2023-03-01T14:52:03;31.70;;;28.97;;
6027;SDS011;3042;43.194;27.646;2023-03-01T14:54:37;27.93;;;25.03;;
6027;SDS011;3042;43.194;27.646;2023-03-01T14:57:12;27.17;;;25.40;;
6027;SDS011;3042;43.194;27.646;2023-03-01T14:59:43;25.07;;;23.37;;
6027;SDS011;3042;43.194;27.646;2023-03-01T15:02:15;24.20;;;22.43;;
6027;SDS011;3042;43.194;27.646;2023-03-01T15:04:45;26.80;;;24.20;;
6027;SDS011;3042;43.194;27.646;2023-03-01T15:07:14;26.90;;;24.10;;
6027;SDS011;3042;43.194;27.646;2023-03-01T15:09:42;31.88;;;28.80;;
6027;SDS011;3042;43.194;27.646;2023-03-01T15:18:13;25.00;;;23.30;;
6027;SDS011;3042;43.194;27.646;2023-03-01T15:20:43;24.23;;;22.23;;
6027;SDS011;3042;43.194;27.646;2023-03-01T15:23:16;29.37;;;26.50;;
6027;SDS011;3042;43.194;27.646;2023-03-01T15:25:47;27.20;;;24.33;;
6027;SDS011;3042;43.194;27.646;2023-03-01T15:28:22;27.30;;;24.87;;
6027;SDS011;3042;43.194;27.646;2023-03-01T15:30:52;77.13;;;30.80;;
6027;SDS011;3042;43.194;27.646;2023-03-01T15:33:35;26.43;;;24.23;;
6027;SDS011;3042;43.194;27.646;2023-03-01T15:36:29;39.13;;;24.70;;
6027;SDS011;3042;43.194;27.646;2023-03-01T15:38:58;25.07;;;23.43;;
6027;SDS011;3042;43.194;27.646;2023-03-01T15:41:27;25.40;;;23.57;;
6027;SDS011;3042;43.194;27.646;2023-03-01T15:43:57;33.13;;;28.70;;